sensor_id;sensor_type;location;lat;lon;timestamp;P1;durP1;ratioP1;P2;durP2;ratioP2
62711;SDS011;48772;55.586;37.730;2022-07-24T00:00:11;22.42;;;12.02;;
62711;SDS011;48772;55.586;37.730;2022-07-24T00:02:39;20.92;;;10.90;;
62711;SDS011;48772;55.586;37.730;2022-07-24T00:07:56;15.98;;;10.15;;
62711;SDS011;48772;55.586;37.730;2022-07-24T00:10:24;18.58;;;10.65;;
62711;SDS011;48772;55.586;37.730;2022-07-24T00:12:54;19.10;;;10.77;;
62711;SDS011;48772;55.586;37.730;2022-07-24T00:15:24;22.52;;;10.65;;
62711;SDS011;48772;55.586;37.730;2022-07-24T00:17:56;28.58;;;11.23;;
62711;SDS011;48772;55.586;37.730;2022-07-24T00:20:25;28.98;;;10.90;;
62711;SDS011;48772;55.586;37.730;2022-07-24T00:22:56;19.70;;;10.38;;
62711;SDS011;48772;55.586;37.730;2022-07-24T00:25:24;21.30;;;10.05;;
62711;SDS011;48772;55.586;37.730;2022-07-24T00:27:50;24.95;;;10.77;;
62711;SDS011;48772;55.586;37.730;2022-07-24T00:30:17;14.25;;;9.85;;
62711;SDS011;48772;55.586;37.730;2022-07-24T00:32:45;15.95;;;10.13;;
62711;SDS011;48772;55.586;37.730;2022-07-24T00:35:10;19.05;;;10.00;;
62711;SDS011;48772;55.586;37.730;2022-07-24T00:37:38;17.83;;;9.88;;
62711;SDS011;48772;55.586;37.730;2022-07-24T00:40:04;15.93;;;9.55;;
62711;SDS011;48772;55.586;37.730;2022-07-24T00:42:31;24.08;;;10.60;;
62711;SDS011;48772;55.586;37.730;2022-07-24T00:44:57;19.52;;;10.90;;
62711;SDS011;48772;55.586;37.730;2022-07-24T00:47:23;19.90;;;11.63;;
62711;SDS011;48772;55.586;37.730;2022-07-24T00:49:49;21.15;;;11.07;;
62711;SDS011;48772;55.586;37.730;2022-07-24T00:52:17;23.80;;;11.82;;
62711;SDS011;48772;55.586;37.730;2022-07-24T00:54:43;21.85;;;10.98;;
62711;SDS011;48772;55.586;37.730;2022-07-24T00:57:10;28.77;;;12.30;;
62711;SDS011;48772;55.586;37.730;2022-07-24T00:59:35;20.85;;;10.52;;
62711;SDS011;48772;55.586;37.730;2022-07-24T01:02:02;18.52;;;12.05;;
62711;SDS011;48772;55.586;37.730;2022-07-24T01:04:28;28.60;;;11.40;;
62711;SDS011;48772;55.586;37.730;2022-07-24T01:06:54;31.02;;;11.13;;
62711;SDS011;48772;55.586;37.730;2022-07-24T01:09:20;24.20;;;12.98;;
62711;SDS011;48772;55.586;37.730;2022-07-24T01:11:46;31.58;;;13.75;;
62711;SDS011;48772;55.586;37.730;2022-07-24T01:14:13;23.73;;;14.10;;
62711;SDS011;48772;55.586;37.730;2022-07-24T01:16:40;29.83;;;14.70;;
62711;SDS011;48772;55.586;37.730;2022-07-24T01:19:06;28.70;;;14.35;;
62711;SDS011;48772;55.586;37.730;2022-07-24T01:21:32;35.38;;;14.35;;
62711;SDS011;48772;55.586;37.730;2022-07-24T01:23:57;31.60;;;14.60;;
62711;SDS011;48772;55.586;37.730;2022-07-24T01:26:23;29.55;;;13.23;;
62711;SDS011;48772;55.586;37.730;2022-07-24T01:28:49;29.58;;;10.88;;
62711;SDS011;48772;55.586;37.730;2022-07-24T01:31:15;29.08;;;13.35;;
62711;SDS011;48772;55.586;37.730;2022-07-24T01:33:41;25.35;;;13.32;;
62711;SDS011;48772;55.586;37.730;2022-07-24T01:36:06;25.30;;;12.30;;
62711;SDS011;48772;55.586;37.730;2022-07-24T01:38:32;23.33;;;10.85;;
62711;SDS011;48772;55.586;37.730;2022-07-24T01:40:58;18.60;;;10.57;;
62711;SDS011;48772;55.586;37.730;2022-07-24T01:43:24;21.77;;;10.73;;
62711;SDS011;48772;55.586;37.730;2022-07-24T01:45:50;23.52;;;11.00;;
62711;SDS011;48772;55.586;37.730;2022-07-24T01:48:15;17.27;;;10.32;;
62711;SDS011;48772;55.586;37.730;2022-07-24T01:50:42;19.92;;;10.45;;
62711;SDS011;48772;55.586;37.730;2022-07-24T01:53:07;20.88;;;9.90;;
62711;SDS011;48772;55.586;37.730;2022-07-24T01:55:33;18.35;;;8.90;;
62711;SDS011;48772;55.586;37.730;2022-07-24T01:57:59;15.98;;;9.48;;
62711;SDS011;48772;55.586;37.730;2022-07-24T02:00:25;18.02;;;9.20;;
62711;SDS011;48772;55.586;37.730;2022-07-24T02:02:51;18.25;;;9.68;;
62711;SDS011;48772;55.586;37.730;2022-07-24T02:05:17;21.65;;;9.55;;
62711;SDS011;48772;55.586;37.730;2022-07-24T02:07:43;16.10;;;9.13;;
62711;SDS011;48772;55.586;37.730;2022-07-24T02:10:09;16.20;;;9.75;;
62711;SDS011;48772;55.586;37.730;2022-07-24T02:12:36;19.90;;;11.10;;
62711;SDS011;48772;55.586;37.730;2022-07-24T02:15:22;18.75;;;9.82;;
62711;SDS011;48772;55.586;37.730;2022-07-24T02:17:49;22.35;;;10.00;;
62711;SDS011;48772;55.586;37.730;2022-07-24T02:20:16;25.10;;;10.50;;
62711;SDS011;48772;55.586;37.730;2022-07-24T02:22:42;18.35;;;9.77;;
62711;SDS011;48772;55.586;37.730;2022-07-24T02:25:08;22.30;;;10.05;;
62711;SDS011;48772;55.586;37.730;2022-07-24T02:27:37;18.88;;;9.15;;
62711;SDS011;48772;55.586;37.730;2022-07-24T02:30:04;18.92;;;8.52;;
62711;SDS011;48772;55.586;37.730;2022-07-24T02:32:31;16.05;;;9.45;;
62711;SDS011;48772;55.586;37.730;2022-07-24T02:34:57;15.52;;;9.65;;
62711;SDS011;48772;55.586;37.730;2022-07-24T02:37:23;15.65;;;8.63;;
62711;SDS011;48772;55.586;37.730;2022-07-24T02:39:48;18.20;;;8.50;;
62711;SDS011;48772;55.586;37.730;2022-07-24T02:42:14;14.82;;;9.45;;
62711;SDS011;48772;55.586;37.730;2022-07-24T02:44:40;20.88;;;9.13;;
62711;SDS011;48772;55.586;37.730;2022-07-24T02:47:06;21.95;;;9.73;;
62711;SDS011;48772;55.586;37.730;2022-07-24T02:49:31;15.98;;;8.60;;
62711;SDS011;48772;55.586;37.730;2022-07-24T02:51:57;25.27;;;9.77;;
62711;SDS011;48772;55.586;37.730;2022-07-24T02:54:23;19.67;;;8.93;;
62711;SDS011;48772;55.586;37.730;2022-07-24T02:56:49;16.50;;;8.75;;
62711;SDS011;48772;55.586;37.730;2022-07-24T02:59:15;17.38;;;9.43;;
62711;SDS011;48772;55.586;37.730;2022-07-24T03:01:40;16.58;;;8.88;;
62711;SDS011;48772;55.586;37.730;2022-07-24T03:04:06;19.08;;;8.40;;
62711;SDS011;48772;55.586;37.730;2022-07-24T03:06:32;14.82;;;8.27;;
62711;SDS011;48772;55.586;37.730;2022-07-24T03:09:00;17.23;;;8.90;;
62711;SDS011;48772;55.586;37.730;2022-07-24T03:11:26;19.38;;;8.82;;
62711;SDS011;48772;55.586;37.730;2022-07-24T03:13:52;26.95;;;8.90;;
62711;SDS011;48772;55.586;37.730;2022-07-24T03:16:17;26.85;;;9.02;;
62711;SDS011;48772;55.586;37.730;2022-07-24T03:18:43;22.20;;;8.80;;
62711;SDS011;48772;55.586;37.730;2022-07-24T03:21:14;19.75;;;8.55;;
62711;SDS011;48772;55.586;37.730;2022-07-24T03:23:41;15.40;;;8.20;;
62711;SDS011;48772;55.586;37.730;2022-07-24T03:26:07;14.00;;;8.00;;
62711;SDS011;48772;55.586;37.730;2022-07-24T03:28:33;11.40;;;7.25;;
62711;SDS011;48772;55.586;37.730;2022-07-24T03:30:59;9.63;;;6.15;;
62711;SDS011;48772;55.586;37.730;2022-07-24T03:33:28;9.93;;;6.55;;
62711;SDS011;48772;55.586;37.730;2022-07-24T03:35:54;15.98;;;6.60;;
62711;SDS011;48772;55.586;37.730;2022-07-24T03:38:20;8.40;;;6.50;;
62711;SDS011;48772;55.586;37.730;2022-07-24T03:40:46;10.27;;;6.20;;
62711;SDS011;48772;55.586;37.730;2022-07-24T03:43:12;17.38;;;6.50;;
62711;SDS011;48772;55.586;37.730;2022-07-24T03:45:38;10.63;;;6.50;;
62711;SDS011;48772;55.586;37.730;2022-07-24T03:48:04;9.57;;;6.88;;
62711;SDS011;48772;55.586;37.730;2022-07-24T03:50:30;13.68;;;6.43;;
62711;SDS011;48772;55.586;37.730;2022-07-24T03:52:56;8.98;;;6.10;;
62711;SDS011;48772;55.586;37.730;2022-07-24T03:55:21;10.48;;;6.28;;
62711;SDS011;48772;55.586;37.730;2022-07-24T03:57:47;6.80;;;5.57;;
62711;SDS011;48772;55.586;37.730;2022-07-24T04:00:16;9.27;;;5.65;;
62711;SDS011;48772;55.586;37.730;2022-07-24T04:02:44;11.07;;;5.70;;
62711;SDS011;48772;55.586;37.730;2022-07-24T04:05:10;9.48;;;5.40;;
62711;SDS011;48772;55.586;37.730;2022-07-24T04:07:38;6.47;;;4.82;;
62711;SDS011;48772;55.586;37.730;2022-07-24T04:10:07;7.90;;;4.80;;
62711;SDS011;48772;55.586;37.730;2022-07-24T04:12:33;7.78;;;5.22;;
62711;SDS011;48772;55.586;37.730;2022-07-24T04:14:59;8.35;;;5.03;;
62711;SDS011;48772;55.586;37.730;2022-07-24T04:17:25;7.35;;;5.40;;
62711;SDS011;48772;55.586;37.730;2022-07-24T04:19:51;6.35;;;5.40;;
62711;SDS011;48772;55.586;37.730;2022-07-24T04:22:17;8.35;;;5.13;;
62711;SDS011;48772;55.586;37.730;2022-07-24T04:24:42;11.05;;;4.80;;
62711;SDS011;48772;55.586;37.730;2022-07-24T04:27:08;8.35;;;4.70;;
62711;SDS011;48772;55.586;37.730;2022-07-24T04:29:34;7.10;;;4.90;;
62711;SDS011;48772;55.586;37.730;2022-07-24T04:32:00;8.02;;;4.60;;
62711;SDS011;48772;55.586;37.730;2022-07-24T04:34:25;5.57;;;4.10;;
62711;SDS011;48772;55.586;37.730;2022-07-24T04:36:51;7.10;;;4.70;;
62711;SDS011;48772;55.586;37.730;2022-07-24T04:39:17;7.20;;;4.55;;
62711;SDS011;48772;55.586;37.730;2022-07-24T04:41:43;6.88;;;3.90;;
62711;SDS011;48772;55.586;37.730;2022-07-24T04:44:09;5.35;;;4.18;;
62711;SDS011;48772;55.586;37.730;2022-07-24T04:46:35;7.32;;;4.35;;
62711;SDS011;48772;55.586;37.730;2022-07-24T04:49:01;7.57;;;4.00;;
62711;SDS011;48772;55.586;37.730;2022-07-24T04:51:27;7.45;;;3.72;;
62711;SDS011;48772;55.586;37.730;2022-07-24T04:53:52;10.70;;;3.85;;
62711;SDS011;48772;55.586;37.730;2022-07-24T04:56:19;11.73;;;4.25;;
62711;SDS011;48772;55.586;37.730;2022-07-24T04:58:46;4.28;;;3.78;;
62711;SDS011;48772;55.586;37.730;2022-07-24T05:01:12;6.90;;;3.85;;
62711;SDS011;48772;55.586;37.730;2022-07-24T05:03:39;8.38;;;3.55;;
62711;SDS011;48772;55.586;37.730;2022-07-24T05:06:05;5.72;;;3.72;;
62711;SDS011;48772;55.586;37.730;2022-07-24T05:08:31;3.70;;;3.35;;
62711;SDS011;48772;55.586;37.730;2022-07-24T05:10:56;4.18;;;3.08;;
62711;SDS011;48772;55.586;37.730;2022-07-24T05:13:22;3.50;;;3.20;;
62711;SDS011;48772;55.586;37.730;2022-07-24T05:15:48;9.18;;;3.25;;
62711;SDS011;48772;55.586;37.730;2022-07-24T05:18:14;3.63;;;3.10;;
62711;SDS011;48772;55.586;37.730;2022-07-24T05:20:39;6.65;;;3.20;;
62711;SDS011;48772;55.586;37.730;2022-07-24T05:23:05;6.63;;;3.20;;
62711;SDS011;48772;55.586;37.730;2022-07-24T05:25:31;4.05;;;3.20;;
62711;SDS011;48772;55.586;37.730;2022-07-24T05:27:57;4.25;;;3.47;;
62711;SDS011;48772;55.586;37.730;2022-07-24T05:30:23;5.05;;;2.97;;
62711;SDS011;48772;55.586;37.730;2022-07-24T05:32:48;8.52;;;3.22;;
62711;SDS011;48772;55.586;37.730;2022-07-24T05:35:14;4.68;;;3.10;;
62711;SDS011;48772;55.586;37.730;2022-07-24T05:37:40;5.45;;;3.20;;
62711;SDS011;48772;55.586;37.730;2022-07-24T05:40:06;9.98;;;3.40;;
62711;SDS011;48772;55.586;37.730;2022-07-24T05:42:32;6.25;;;3.28;;
62711;SDS011;48772;55.586;37.730;2022-07-24T05:44:58;5.30;;;2.83;;
62711;SDS011;48772;55.586;37.730;2022-07-24T05:47:24;3.85;;;2.80;;
62711;SDS011;48772;55.586;37.730;2022-07-24T05:49:49;3.17;;;2.53;;
62711;SDS011;48772;55.586;37.730;2022-07-24T05:52:15;2.92;;;2.60;;
62711;SDS011;48772;55.586;37.730;2022-07-24T05:54:41;4.68;;;3.13;;
62711;SDS011;48772;55.586;37.730;2022-07-24T05:57:07;3.70;;;2.63;;
62711;SDS011;48772;55.586;37.730;2022-07-24T05:59:32;3.58;;;2.70;;
62711;SDS011;48772;55.586;37.730;2022-07-24T06:01:58;6.38;;;2.72;;
62711;SDS011;48772;55.586;37.730;2022-07-24T06:04:27;3.83;;;2.55;;
62711;SDS011;48772;55.586;37.730;2022-07-24T06:06:52;5.72;;;3.13;;
62711;SDS011;48772;55.586;37.730;2022-07-24T06:09:18;9.50;;;3.22;;
62711;SDS011;48772;55.586;37.730;2022-07-24T06:11:44;8.05;;;4.43;;
62711;SDS011;48772;55.586;37.730;2022-07-24T06:14:10;9.82;;;4.60;;
62711;SDS011;48772;55.586;37.730;2022-07-24T06:16:35;4.80;;;3.75;;
62711;SDS011;48772;55.586;37.730;2022-07-24T06:19:01;10.35;;;4.35;;
62711;SDS011;48772;55.586;37.730;2022-07-24T06:21:27;6.95;;;3.97;;
62711;SDS011;48772;55.586;37.730;2022-07-24T06:23:53;10.15;;;3.72;;
62711;SDS011;48772;55.586;37.730;2022-07-24T06:26:18;8.32;;;3.58;;
62711;SDS011;48772;55.586;37.730;2022-07-24T06:28:44;4.88;;;3.47;;
62711;SDS011;48772;55.586;37.730;2022-07-24T06:31:10;7.22;;;3.58;;
62711;SDS011;48772;55.586;37.730;2022-07-24T06:33:36;4.43;;;3.20;;
62711;SDS011;48772;55.586;37.730;2022-07-24T06:36:02;7.85;;;3.45;;
62711;SDS011;48772;55.586;37.730;2022-07-24T06:38:28;6.35;;;3.47;;
62711;SDS011;48772;55.586;37.730;2022-07-24T06:40:54;7.30;;;3.38;;
62711;SDS011;48772;55.586;37.730;2022-07-24T06:43:19;5.15;;;2.88;;
62711;SDS011;48772;55.586;37.730;2022-07-24T06:45:46;7.00;;;3.40;;
62711;SDS011;48772;55.586;37.730;2022-07-24T06:48:12;4.05;;;3.13;;
62711;SDS011;48772;55.586;37.730;2022-07-24T06:50:37;2.90;;;2.60;;
62711;SDS011;48772;55.586;37.730;2022-07-24T06:53:03;3.25;;;2.95;;
62711;SDS011;48772;55.586;37.730;2022-07-24T06:55:29;4.35;;;3.40;;
62711;SDS011;48772;55.586;37.730;2022-07-24T06:57:55;6.70;;;3.50;;
62711;SDS011;48772;55.586;37.730;2022-07-24T07:00:20;4.57;;;3.15;;
62711;SDS011;48772;55.586;37.730;2022-07-24T07:02:46;3.70;;;2.90;;
62711;SDS011;48772;55.586;37.730;2022-07-24T07:05:12;5.88;;;3.20;;
62711;SDS011;48772;55.586;37.730;2022-07-24T07:07:38;4.22;;;2.85;;
62711;SDS011;48772;55.586;37.730;2022-07-24T07:10:05;4.10;;;2.60;;
62711;SDS011;48772;55.586;37.730;2022-07-24T07:12:31;4.75;;;3.00;;
62711;SDS011;48772;55.586;37.730;2022-07-24T07:14:57;3.92;;;2.80;;
62711;SDS011;48772;55.586;37.730;2022-07-24T07:17:25;3.05;;;2.70;;
62711;SDS011;48772;55.586;37.730;2022-07-24T07:19:51;3.47;;;2.70;;
62711;SDS011;48772;55.586;37.730;2022-07-24T07:22:17;5.45;;;2.97;;
62711;SDS011;48772;55.586;37.730;2022-07-24T07:24:43;2.92;;;2.60;;
62711;SDS011;48772;55.586;37.730;2022-07-24T07:27:08;2.67;;;2.47;;
62711;SDS011;48772;55.586;37.730;2022-07-24T07:29:34;3.05;;;2.22;;
62711;SDS011;48772;55.586;37.730;2022-07-24T07:32:00;2.72;;;2.47;;
62711;SDS011;48772;55.586;37.730;2022-07-24T07:34:26;2.50;;;2.30;;
62711;SDS011;48772;55.586;37.730;2022-07-24T07:36:52;2.83;;;2.20;;
62711;SDS011;48772;55.586;37.730;2022-07-24T07:39:18;3.22;;;2.30;;
62711;SDS011;48772;55.586;37.730;2022-07-24T07:41:44;2.45;;;2.08;;
62711;SDS011;48772;55.586;37.730;2022-07-24T07:44:10;2.60;;;2.30;;
62711;SDS011;48772;55.586;37.730;2022-07-24T07:46:37;3.35;;;2.40;;
62711;SDS011;48772;55.586;37.730;2022-07-24T07:49:04;3.10;;;2.65;;
62711;SDS011;48772;55.586;37.730;2022-07-24T07:51:29;3.92;;;2.90;;
62711;SDS011;48772;55.586;37.730;2022-07-24T07:53:55;2.78;;;2.50;;
62711;SDS011;48772;55.586;37.730;2022-07-24T07:56:21;4.07;;;2.50;;
62711;SDS011;48772;55.586;37.730;2022-07-24T07:58:47;4.63;;;2.70;;
62711;SDS011;48772;55.586;37.730;2022-07-24T08:01:13;3.40;;;2.55;;
62711;SDS011;48772;55.586;37.730;2022-07-24T08:03:38;2.63;;;2.42;;
62711;SDS011;48772;55.586;37.730;2022-07-24T08:06:04;3.45;;;2.60;;
62711;SDS011;48772;55.586;37.730;2022-07-24T08:08:30;2.70;;;2.50;;
62711;SDS011;48772;55.586;37.730;2022-07-24T08:10:56;4.65;;;3.20;;
62711;SDS011;48772;55.586;37.730;2022-07-24T08:13:22;3.40;;;2.60;;
62711;SDS011;48772;55.586;37.730;2022-07-24T08:15:48;5.25;;;2.60;;
62711;SDS011;48772;55.586;37.730;2022-07-24T08:18:14;5.22;;;2.72;;
62711;SDS011;48772;55.586;37.730;2022-07-24T08:20:40;2.90;;;2.70;;
62711;SDS011;48772;55.586;37.730;2022-07-24T08:23:08;6.22;;;2.75;;
62711;SDS011;48772;55.586;37.730;2022-07-24T08:25:33;2.97;;;2.65;;
62711;SDS011;48772;55.586;37.730;2022-07-24T08:27:59;6.15;;;2.63;;
62711;SDS011;48772;55.586;37.730;2022-07-24T08:30:25;2.90;;;2.60;;
62711;SDS011;48772;55.586;37.730;2022-07-24T08:32:52;2.70;;;2.47;;
62711;SDS011;48772;55.586;37.730;2022-07-24T08:35:18;2.53;;;2.28;;
62711;SDS011;48772;55.586;37.730;2022-07-24T08:37:44;3.88;;;2.60;;
62711;SDS011;48772;55.586;37.730;2022-07-24T08:40:10;2.88;;;2.22;;
62711;SDS011;48772;55.586;37.730;2022-07-24T08:42:36;6.43;;;2.50;;
62711;SDS011;48772;55.586;37.730;2022-07-24T08:45:05;2.58;;;2.35;;
62711;SDS011;48772;55.586;37.730;2022-07-24T08:47:32;2.72;;;2.53;;
62711;SDS011;48772;55.586;37.730;2022-07-24T08:49:59;2.45;;;2.25;;
62711;SDS011;48772;55.586;37.730;2022-07-24T08:52:30;2.33;;;2.13;;
62711;SDS011;48772;55.586;37.730;2022-07-24T08:54:56;2.40;;;2.20;;
62711;SDS011;48772;55.586;37.730;2022-07-24T08:57:22;3.42;;;2.00;;
62711;SDS011;48772;55.586;37.730;2022-07-24T08:59:48;2.67;;;2.20;;
62711;SDS011;48772;55.586;37.730;2022-07-24T09:02:14;2.50;;;2.30;;
62711;SDS011;48772;55.586;37.730;2022-07-24T09:04:44;2.50;;;2.30;;
62711;SDS011;48772;55.586;37.730;2022-07-24T09:07:19;3.38;;;2.30;;
62711;SDS011;48772;55.586;37.730;2022-07-24T09:10:01;2.63;;;2.28;;
62711;SDS011;48772;55.586;37.730;2022-07-24T09:12:34;4.43;;;2.38;;
62711;SDS011;48772;55.586;37.730;2022-07-24T09:15:05;3.83;;;2.53;;
62711;SDS011;48772;55.586;37.730;2022-07-24T09:17:36;2.90;;;2.70;;
62711;SDS011;48772;55.586;37.730;2022-07-24T09:20:13;5.47;;;2.60;;
62711;SDS011;48772;55.586;37.730;2022-07-24T09:22:41;3.65;;;2.58;;
62711;SDS011;48772;55.586;37.730;2022-07-24T09:27:47;2.65;;;2.45;;
62711;SDS011;48772;55.586;37.730;2022-07-24T09:30:48;3.47;;;2.55;;
62711;SDS011;48772;55.586;37.730;2022-07-24T09:35:46;3.10;;;2.78;;
62711;SDS011;48772;55.586;37.730;2022-07-24T09:38:16;2.60;;;2.40;;
62711;SDS011;48772;55.586;37.730;2022-07-24T09:40:50;2.50;;;2.28;;
62711;SDS011;48772;55.586;37.730;2022-07-24T09:43:19;4.38;;;2.15;;
62711;SDS011;48772;55.586;37.730;2022-07-24T09:45:53;2.60;;;2.40;;
62711;SDS011;48772;55.586;37.730;2022-07-24T09:48:22;2.20;;;2.10;;
62711;SDS011;48772;55.586;37.730;2022-07-24T09:51:20;2.65;;;2.45;;
62711;SDS011;48772;55.586;37.730;2022-07-24T09:53:46;3.20;;;2.60;;
62711;SDS011;48772;55.586;37.730;2022-07-24T09:56:17;2.70;;;2.50;;
62711;SDS011;48772;55.586;37.730;2022-07-24T10:01:09;6.80;;;2.63;;
62711;SDS011;48772;55.586;37.730;2022-07-24T10:03:36;4.20;;;2.50;;
62711;SDS011;48772;55.586;37.730;2022-07-24T10:06:07;2.75;;;2.55;;
62711;SDS011;48772;55.586;37.730;2022-07-24T10:08:35;3.65;;;2.40;;
62711;SDS011;48772;55.586;37.730;2022-07-24T10:11:03;4.10;;;2.40;;
62711;SDS011;48772;55.586;37.730;2022-07-24T10:13:29;4.05;;;2.75;;
62711;SDS011;48772;55.586;37.730;2022-07-24T10:21:16;2.55;;;2.35;;
62711;SDS011;48772;55.586;37.730;2022-07-24T10:29:08;2.47;;;1.90;;
62711;SDS011;48772;55.586;37.730;2022-07-24T10:31:40;2.30;;;2.10;;
62711;SDS011;48772;55.586;37.730;2022-07-24T10:40:02;2.50;;;2.30;;
62711;SDS011;48772;55.586;37.730;2022-07-24T10:42:34;3.88;;;2.50;;
62711;SDS011;48772;55.586;37.730;2022-07-24T10:45:31;3.17;;;2.40;;
62711;SDS011;48772;55.586;37.730;2022-07-24T10:47:58;2.60;;;2.20;;
62711;SDS011;48772;55.586;37.730;2022-07-24T10:58:51;3.00;;;2.53;;
62711;SDS011;48772;55.586;37.730;2022-07-24T11:01:27;2.88;;;2.35;;
62711;SDS011;48772;55.586;37.730;2022-07-24T11:03:53;2.20;;;2.08;;
62711;SDS011;48772;55.586;37.730;2022-07-24T11:06:36;2.70;;;2.42;;
62711;SDS011;48772;55.586;37.730;2022-07-24T11:09:06;2.67;;;2.47;;
62711;SDS011;48772;55.586;37.730;2022-07-24T11:11:32;2.60;;;2.40;;
62711;SDS011;48772;55.586;37.730;2022-07-24T11:13:58;3.88;;;2.40;;
62711;SDS011;48772;55.586;37.730;2022-07-24T11:16:28;2.80;;;2.30;;
62711;SDS011;48772;55.586;37.730;2022-07-24T11:21:42;6.18;;;4.25;;
62711;SDS011;48772;55.586;37.730;2022-07-24T11:29:37;4.05;;;2.63;;
62711;SDS011;48772;55.586;37.730;2022-07-24T11:34:33;2.85;;;2.60;;
62711;SDS011;48772;55.586;37.730;2022-07-24T11:37:02;3.05;;;2.83;;
62711;SDS011;48772;55.586;37.730;2022-07-24T11:39:34;5.20;;;2.80;;
62711;SDS011;48772;55.586;37.730;2022-07-24T11:42:09;3.80;;;2.78;;
62711;SDS011;48772;55.586;37.730;2022-07-24T11:44:45;8.35;;;4.05;;
62711;SDS011;48772;55.586;37.730;2022-07-24T11:47:13;4.55;;;4.15;;
62711;SDS011;48772;55.586;37.730;2022-07-24T11:52:25;2.95;;;2.60;;
62711;SDS011;48772;55.586;37.730;2022-07-24T11:54:59;4.63;;;2.90;;
62711;SDS011;48772;55.586;37.730;2022-07-24T11:57:30;2.72;;;2.53;;
62711;SDS011;48772;55.586;37.730;2022-07-24T11:59:58;3.60;;;2.60;;
62711;SDS011;48772;55.586;37.730;2022-07-24T12:02:25;5.00;;;2.80;;
62711;SDS011;48772;55.586;37.730;2022-07-24T12:04:52;5.07;;;2.67;;
62711;SDS011;48772;55.586;37.730;2022-07-24T12:07:24;3.53;;;2.90;;
62711;SDS011;48772;55.586;37.730;2022-07-24T12:09:54;3.85;;;3.03;;
62711;SDS011;48772;55.586;37.730;2022-07-24T12:12:31;2.90;;;2.70;;
62711;SDS011;48772;55.586;37.730;2022-07-24T12:17:30;4.93;;;2.72;;
62711;SDS011;48772;55.586;37.730;2022-07-24T12:19:59;3.08;;;2.83;;
62711;SDS011;48772;55.586;37.730;2022-07-24T12:22:27;3.47;;;2.70;;
62711;SDS011;48772;55.586;37.730;2022-07-24T12:24:56;3.88;;;3.17;;
62711;SDS011;48772;55.586;37.730;2022-07-24T12:27:37;5.78;;;2.75;;
62711;SDS011;48772;55.586;37.730;2022-07-24T12:32:56;2.97;;;2.65;;
62711;SDS011;48772;55.586;37.730;2022-07-24T12:35:31;5.03;;;2.80;;
62711;SDS011;48772;55.586;37.730;2022-07-24T12:38:22;3.67;;;2.80;;
62711;SDS011;48772;55.586;37.730;2022-07-24T12:40:49;5.85;;;2.95;;
62711;SDS011;48772;55.586;37.730;2022-07-24T12:43:16;2.72;;;2.53;;
62711;SDS011;48772;55.586;37.730;2022-07-24T12:45:42;2.97;;;2.78;;
62711;SDS011;48772;55.586;37.730;2022-07-24T12:51:02;4.00;;;2.60;;
62711;SDS011;48772;55.586;37.730;2022-07-24T12:53:31;3.72;;;2.80;;
62711;SDS011;48772;55.586;37.730;2022-07-24T12:59:02;4.18;;;2.60;;
62711;SDS011;48772;55.586;37.730;2022-07-24T13:01:47;3.70;;;2.67;;
62711;SDS011;48772;55.586;37.730;2022-07-24T13:04:26;3.97;;;2.92;;
62711;SDS011;48772;55.586;37.730;2022-07-24T13:06:58;4.47;;;2.90;;
62711;SDS011;48772;55.586;37.730;2022-07-24T13:09:25;3.10;;;2.80;;
62711;SDS011;48772;55.586;37.730;2022-07-24T13:11:56;5.43;;;2.90;;
62711;SDS011;48772;55.586;37.730;2022-07-24T13:14:27;5.43;;;2.60;;
62711;SDS011;48772;55.586;37.730;2022-07-24T13:17:00;2.95;;;2.75;;
62711;SDS011;48772;55.586;37.730;2022-07-24T13:19:27;3.63;;;2.63;;
62711;SDS011;48772;55.586;37.730;2022-07-24T13:21:53;2.67;;;2.47;;
62711;SDS011;48772;55.586;37.730;2022-07-24T13:24:18;3.00;;;2.80;;
62711;SDS011;48772;55.586;37.730;2022-07-24T13:26:44;2.53;;;2.33;;
62711;SDS011;48772;55.586;37.730;2022-07-24T13:29:11;3.67;;;2.70;;
62711;SDS011;48772;55.586;37.730;2022-07-24T13:31:37;3.05;;;2.70;;
62711;SDS011;48772;55.586;37.730;2022-07-24T13:34:04;2.78;;;2.58;;
62711;SDS011;48772;55.586;37.730;2022-07-24T13:36:31;3.97;;;2.72;;
62711;SDS011;48772;55.586;37.730;2022-07-24T13:38:58;3.00;;;2.70;;
62711;SDS011;48772;55.586;37.730;2022-07-24T13:41:24;3.53;;;2.83;;
62711;SDS011;48772;55.586;37.730;2022-07-24T13:43:50;6.65;;;4.70;;
62711;SDS011;48772;55.586;37.730;2022-07-24T13:46:16;4.43;;;3.85;;
62711;SDS011;48772;55.586;37.730;2022-07-24T13:48:43;3.95;;;2.85;;
62711;SDS011;48772;55.586;37.730;2022-07-24T13:51:10;3.97;;;2.70;;
62711;SDS011;48772;55.586;37.730;2022-07-24T13:53:35;5.50;;;3.00;;
62711;SDS011;48772;55.586;37.730;2022-07-24T13:56:08;2.95;;;2.72;;
62711;SDS011;48772;55.586;37.730;2022-07-24T13:58:34;3.22;;;2.70;;
62711;SDS011;48772;55.586;37.730;2022-07-24T14:01:04;3.13;;;2.60;;
62711;SDS011;48772;55.586;37.730;2022-07-24T14:03:32;2.80;;;2.60;;
62711;SDS011;48772;55.586;37.730;2022-07-24T14:05:58;4.28;;;2.45;;
62711;SDS011;48772;55.586;37.730;2022-07-24T14:08:25;4.35;;;2.70;;
62711;SDS011;48772;55.586;37.730;2022-07-24T14:10:52;6.40;;;2.67;;
62711;SDS011;48772;55.586;37.730;2022-07-24T14:13:18;4.78;;;2.80;;
62711;SDS011;48772;55.586;37.730;2022-07-24T14:15:44;4.43;;;2.70;;
62711;SDS011;48772;55.586;37.730;2022-07-24T14:18:10;3.20;;;2.90;;
62711;SDS011;48772;55.586;37.730;2022-07-24T14:20:36;6.25;;;2.58;;
62711;SDS011;48772;55.586;37.730;2022-07-24T14:23:02;4.82;;;2.67;;
62711;SDS011;48772;55.586;37.730;2022-07-24T14:25:28;2.70;;;2.40;;
62711;SDS011;48772;55.586;37.730;2022-07-24T14:27:53;4.47;;;2.60;;
62711;SDS011;48772;55.586;37.730;2022-07-24T14:30:19;3.22;;;2.63;;
62711;SDS011;48772;55.586;37.730;2022-07-24T14:32:46;5.07;;;2.53;;
62711;SDS011;48772;55.586;37.730;2022-07-24T14:35:14;4.53;;;2.70;;
62711;SDS011;48772;55.586;37.730;2022-07-24T14:37:40;3.67;;;2.83;;
62711;SDS011;48772;55.586;37.730;2022-07-24T14:40:08;2.72;;;2.50;;
62711;SDS011;48772;55.586;37.730;2022-07-24T14:42:43;2.70;;;2.50;;
62711;SDS011;48772;55.586;37.730;2022-07-24T14:45:18;2.88;;;2.58;;
62711;SDS011;48772;55.586;37.730;2022-07-24T14:47:44;4.60;;;2.30;;
62711;SDS011;48772;55.586;37.730;2022-07-24T14:50:10;5.38;;;2.90;;
62711;SDS011;48772;55.586;37.730;2022-07-24T14:52:37;5.03;;;2.42;;
62711;SDS011;48772;55.586;37.730;2022-07-24T14:55:06;3.55;;;2.78;;
62711;SDS011;48772;55.586;37.730;2022-07-24T14:57:33;3.20;;;2.40;;
62711;SDS011;48772;55.586;37.730;2022-07-24T15:00:00;2.95;;;2.75;;
62711;SDS011;48772;55.586;37.730;2022-07-24T15:02:32;4.82;;;2.70;;
62711;SDS011;48772;55.586;37.730;2022-07-24T15:04:58;3.38;;;2.88;;
62711;SDS011;48772;55.586;37.730;2022-07-24T15:07:24;2.83;;;2.60;;
62711;SDS011;48772;55.586;37.730;2022-07-24T15:09:51;3.25;;;2.97;;
62711;SDS011;48772;55.586;37.730;2022-07-24T15:12:16;3.00;;;2.75;;
62711;SDS011;48772;55.586;37.730;2022-07-24T15:14:42;4.90;;;3.17;;
62711;SDS011;48772;55.586;37.730;2022-07-24T15:17:08;2.85;;;2.65;;
62711;SDS011;48772;55.586;37.730;2022-07-24T15:19:34;2.80;;;2.60;;
62711;SDS011;48772;55.586;37.730;2022-07-24T15:22:02;3.05;;;2.85;;
62711;SDS011;48772;55.586;37.730;2022-07-24T15:24:27;3.05;;;2.83;;
62711;SDS011;48772;55.586;37.730;2022-07-24T15:26:53;2.75;;;2.55;;
62711;SDS011;48772;55.586;37.730;2022-07-24T15:29:19;4.97;;;2.53;;